sensor_id;sensor_type;location;lat;lon;timestamp;pressure;altitude;pressure_sealevel;temperature;humidity
5679;BME280;2862;52.560;13.566;2022-08-01T00:06:46;100365.72;;;23.75;49.33
5679;BME280;2862;52.560;13.566;2022-08-01T00:16:49;100346.38;;;23.45;50.20
5679;BME280;2862;52.560;13.566;2022-08-01T00:26:53;100360.47;;;23.42;50.08
5679;BME280;2862;52.560;13.566;2022-08-01T00:36:56;100372.63;;;23.46;50.40
5679;BME280;2862;52.560;13.566;2022-08-01T00:47:01;100371.25;;;23.30;52.37
5679;BME280;2862;52.560;13.566;2022-08-01T00:57:05;100377.25;;;23.07;53.89
5679;BME280;2862;52.560;13.566;2022-08-01T01:07:15;100358.75;;;22.64;58.72
5679;BME280;2862;52.560;13.566;2022-08-01T01:17:26;100348.25;;;22.68;58.82
5679;BME280;2862;52.560;13.566;2022-08-01T01:27:39;100338.09;;;22.30;60.81
5679;BME280;2862;52.560;13.566;2022-08-01T01:37:47;100350.81;;;22.56;59.83
5679;BME280;2862;52.560;13.566;2022-08-01T01:47:52;100341.78;;;22.62;59.39
5679;BME280;2862;52.560;13.566;2022-08-01T01:57:59;100337.13;;;22.69;59.76
5679;BME280;2862;52.560;13.566;2022-08-01T02:08:03;100333.84;;;22.61;59.65
5679;BME280;2862;52.560;13.566;2022-08-01T02:18:08;100341.59;;;22.57;60.68
5679;BME280;2862;52.560;13.566;2022-08-01T02:28:17;100343.34;;;22.38;61.51
5679;BME280;2862;52.560;13.566;2022-08-01T02:38:27;100348.16;;;22.43;61.40
5679;BME280;2862;52.560;13.566;2022-08-01T02:48:33;100345.44;;;22.30;62.46
5679;BME280;2862;52.560;13.566;2022-08-01T02:58:40;100342.28;;;22.39;61.79
5679;BME280;2862;52.560;13.566;2022-08-01T03:08:44;100340.41;;;22.33;62.06
5679;BME280;2862;52.560;13.566;2022-08-01T03:18:53;100354.94;;;22.14;62.22
5679;BME280;2862;52.560;13.566;2022-08-01T03:29:00;100360.34;;;22.07;62.42
5679;BME280;2862;52.560;13.566;2022-08-01T03:39:07;100362.69;;;22.10;62.87
5679;BME280;2862;52.560;13.566;2022-08-01T03:49:18;100362.44;;;22.18;62.96
5679;BME280;2862;52.560;13.566;2022-08-01T03:59:24;100369.78;;;22.96;60.45
5679;BME280;2862;52.560;13.566;2022-08-01T04:09:27;100366.72;;;24.97;54.38
5679;BME280;2862;52.560;13.566;2022-08-01T04:19:32;100369.78;;;23.59;57.89
5679;BME280;2862;52.560;13.566;2022-08-01T04:29:35;100363.66;;;22.94;60.68
5679;BME280;2862;52.560;13.566;2022-08-01T04:39:41;100373.13;;;22.91;61.03
5679;BME280;2862;52.560;13.566;2022-08-01T04:49:45;100379.06;;;22.68;62.41
5679;BME280;2862;52.560;13.566;2022-08-01T04:59:50;100385.97;;;22.71;62.36
5679;BME280;2862;52.560;13.566;2022-08-01T05:09:58;100384.97;;;22.65;63.46
5679;BME280;2862;52.560;13.566;2022-08-01T05:20:05;100398.56;;;22.72;62.95
5679;BME280;2862;52.560;13.566;2022-08-01T05:30:09;100395.22;;;22.63;63.74
5679;BME280;2862;52.560;13.566;2022-08-01T05:40:14;100401.94;;;22.67;63.71
5679;BME280;2862;52.560;13.566;2022-08-01T05:50:17;100397.78;;;22.51;66.19
5679;BME280;2862;52.560;13.566;2022-08-01T06:00:21;100408.28;;;22.55;66.23
5679;BME280;2862;52.560;13.566;2022-08-01T06:10:24;100417.69;;;22.65;65.84
5679;BME280;2862;52.560;13.566;2022-08-01T06:20:29;100423.47;;;22.82;65.15
5679;BME280;2862;52.560;13.566;2022-08-01T06:30:31;100430.38;;;22.98;64.33
5679;BME280;2862;52.560;13.566;2022-08-01T06:40:36;100429.63;;;23.22;63.59
5679;BME280;2862;52.560;13.566;2022-08-01T06:50:39;100441.69;;;23.01;64.66
5679;BME280;2862;52.560;13.566;2022-08-01T07:00:43;100434.41;;;23.97;61.79
5679;BME280;2862;52.560;13.566;2022-08-01T07:10:46;100432.59;;;25.74;56.22
5679;BME280;2862;52.560;13.566;2022-08-01T07:20:50;100434.63;;;24.82;58.04
5679;BME280;2862;52.560;13.566;2022-08-01T07:30:53;100442.00;;;24.63;58.01
5679;BME280;2862;52.560;13.566;2022-08-01T07:40:58;100447.91;;;24.17;59.45
5679;BME280;2862;52.560;13.566;2022-08-01T07:51:01;100451.91;;;23.89;60.43
5679;BME280;2862;52.560;13.566;2022-08-01T08:01:04;100465.91;;;23.68;60.01
5679;BME280;2862;52.560;13.566;2022-08-01T08:11:07;100463.22;;;24.18;58.83
5679;BME280;2862;52.560;13.566;2022-08-01T08:21:11;100465.72;;;25.06;56.21
5679;BME280;2862;52.560;13.566;2022-08-01T08:31:14;100476.78;;;24.38;57.84
5679;BME280;2862;52.560;13.566;2022-08-01T08:41:18;100478.19;;;24.15;57.78
5679;BME280;2862;52.560;13.566;2022-08-01T08:51:23;100486.59;;;24.63;55.81
5679;BME280;2862;52.560;13.566;2022-08-01T09:01:30;100483.41;;;26.00;52.52
5679;BME280;2862;52.560;13.566;2022-08-01T09:11:37;100492.59;;;26.06;52.05
5679;BME280;2862;52.560;13.566;2022-08-01T09:21:56;100495.59;;;25.74;52.25
5679;BME280;2862;52.560;13.566;2022-08-01T09:32:04;100497.84;;;26.19;50.93
5679;BME280;2862;52.560;13.566;2022-08-01T09:42:23;100522.66;;;25.34;52.41
5679;BME280;2862;52.560;13.566;2022-08-01T09:52:27;100525.38;;;25.34;53.01
5679;BME280;2862;52.560;13.566;2022-08-01T10:02:33;100532.06;;;25.01;53.67
5679;BME280;2862;52.560;13.566;2022-08-01T10:12:37;100557.88;;;24.44;55.03
5679;BME280;2862;52.560;13.566;2022-08-01T10:22:42;100554.63;;;24.22;55.80
5679;BME280;2862;52.560;13.566;2022-08-01T10:32:46;100555.88;;;24.26;54.87
5679;BME280;2862;52.560;13.566;2022-08-01T10:42:51;100568.69;;;24.57;54.62
5679;BME280;2862;52.560;13.566;2022-08-01T10:53:05;100560.22;;;25.27;53.37
5679;BME280;2862;52.560;13.566;2022-08-01T11:03:10;100559.38;;;25.45;52.62
5679;BME280;2862;52.560;13.566;2022-08-01T11:13:13;100570.22;;;24.96;53.74
5679;BME280;2862;52.560;13.566;2022-08-01T11:23:18;100578.81;;;24.75;54.95
5679;BME280;2862;52.560;13.566;2022-08-01T11:33:47;100586.78;;;25.01;54.15
5679;BME280;2862;52.560;13.566;2022-08-01T11:43:56;100604.00;;;24.58;54.81
5679;BME280;2862;52.560;13.566;2022-08-01T11:54:00;100614.09;;;24.26;57.93
5679;BME280;2862;52.560;13.566;2022-08-01T12:04:04;100615.25;;;24.44;58.32
5679;BME280;2862;52.560;13.566;2022-08-01T12:14:07;100615.09;;;24.88;56.48
5679;BME280;2862;52.560;13.566;2022-08-01T12:24:12;100608.13;;;25.54;54.78
5679;BME280;2862;52.560;13.566;2022-08-01T12:34:27;100607.31;;;26.02;53.17
5679;BME280;2862;52.560;13.566;2022-08-01T12:44:31;100611.63;;;25.43;54.33
5679;BME280;2862;52.560;13.566;2022-08-01T12:55:00;100621.16;;;24.66;53.66
5679;BME280;2862;52.560;13.566;2022-08-01T13:05:05;100624.97;;;24.64;54.50
5679;BME280;2862;52.560;13.566;2022-08-01T13:15:17;100616.53;;;25.16;53.23
5679;BME280;2862;52.560;13.566;2022-08-01T13:25:21;100616.09;;;24.94;55.07
5679;BME280;2862;52.560;13.566;2022-08-01T13:35:26;100626.25;;;24.62;55.77
5679;BME280;2862;52.560;13.566;2022-08-01T13:45:30;100624.59;;;24.61;55.68
5679;BME280;2862;52.560;13.566;2022-08-01T13:55:33;100625.72;;;24.78;55.35
5679;BME280;2862;52.560;13.566;2022-08-01T14:05:37;100641.28;;;25.03;54.71
5679;BME280;2862;52.560;13.566;2022-08-01T14:15:41;100645.06;;;25.27;54.23
5679;BME280;2862;52.560;13.566;2022-08-01T14:25:45;100653.34;;;25.38;54.62
5679;BME280;2862;52.560;13.566;2022-08-01T14:35:48;100659.50;;;25.77;53.65
5679;BME280;2862;52.560;13.566;2022-08-01T14:45:53;100658.28;;;26.03;51.90
5679;BME280;2862;52.560;13.566;2022-08-01T14:55:56;100662.69;;;26.23;51.13
5679;BME280;2862;52.560;13.566;2022-08-01T15:06:00;100664.94;;;25.95;50.45
5679;BME280;2862;52.560;13.566;2022-08-01T15:16:03;100675.88;;;25.40;52.05
5679;BME280;2862;52.560;13.566;2022-08-01T15:26:08;100683.03;;;25.16;52.62
5679;BME280;2862;52.560;13.566;2022-08-01T15:36:15;100677.81;;;25.58;51.25
5679;BME280;2862;52.560;13.566;2022-08-01T15:46:19;100679.59;;;25.46;49.30
5679;BME280;2862;52.560;13.566;2022-08-01T15:56:23;100693.50;;;25.26;49.88
5679;BME280;2862;52.560;13.566;2022-08-01T16:06:27;100685.63;;;25.36;49.86
5679;BME280;2862;52.560;13.566;2022-08-01T16:16:30;100688.03;;;25.26;49.10
5679;BME280;2862;52.560;13.566;2022-08-01T16:26:34;100695.69;;;25.18;47.95
5679;BME280;2862;52.560;13.566;2022-08-01T16:36:37;100698.94;;;25.08;48.71
5679;BME280;2862;52.560;13.566;2022-08-01T16:46:41;100689.75;;;25.21;48.97
5679;BME280;2862;52.560;13.566;2022-08-01T16:56:44;100692.41;;;25.02;48.80
5679;BME280;2862;52.560;13.566;2022-08-01T17:06:51;100689.66;;;25.09;48.48
5679;BME280;2862;52.560;13.566;2022-08-01T17:16:53;100704.81;;;25.05;48.50
5679;BME280;2862;52.560;13.566;2022-08-01T17:26:58;100703.09;;;25.10;49.05
5679;BME280;2862;52.560;13.566;2022-08-01T17:37:01;100703.13;;;25.04;49.31
5679;BME280;2862;52.560;13.566;2022-08-01T17:47:05;100705.66;;;25.05;49.41
5679;BME280;2862;52.560;13.566;2022-08-01T17:57:08;100712.06;;;24.93;49.83
5679;BME280;2862;52.560;13.566;2022-08-01T18:07:13;100722.47;;;24.77;50.66
5679;BME280;2862;52.560;13.566;2022-08-01T18:17:16;100722.38;;;24.59;50.68
5679;BME280;2862;52.560;13.566;2022-08-01T18:27:20;100713.56;;;24.12;52.05
5679;BME280;2862;52.560;13.566;2022-08-01T18:37:23;100719.78;;;23.81;52.49
5679;BME280;2862;52.560;13.566;2022-08-01T18:47:27;100738.91;;;23.68;52.93
5679;BME280;2862;52.560;13.566;2022-08-01T18:57:30;100753.44;;;23.28;53.19
5679;BME280;2862;52.560;13.566;2022-08-01T19:07:34;100761.59;;;23.22;53.24
5679;BME280;2862;52.560;13.566;2022-08-01T19:17:54;100780.94;;;23.07;53.66
5679;BME280;2862;52.560;13.566;2022-08-01T19:27:58;100787.00;;;23.09;53.42
5679;BME280;2862;52.560;13.566;2022-08-01T19:38:02;100799.19;;;23.13;52.71
5679;BME280;2862;52.560;13.566;2022-08-01T19:48:06;100811.34;;;23.11;53.09
5679;BME280;2862;52.560;13.566;2022-08-01T19:58:11;100823.72;;;23.00;53.40
5679;BME280;2862;52.560;13.566;2022-08-01T20:08:29;100822.44;;;22.89;53.38
5679;BME280;2862;52.560;13.566;2022-08-01T20:18:33;100841.03;;;22.79;53.54
5679;BME280;2862;52.560;13.566;2022-08-01T20:28:39;100847.00;;;22.13;55.00
5679;BME280;2862;52.560;13.566;2022-08-01T20:38:43;100861.41;;;21.79;56.78
5679;BME280;2862;52.560;13.566;2022-08-01T20:48:47;100881.06;;;21.74;57.47
5679;BME280;2862;52.560;13.566;2022-08-01T20:58:59;100887.31;;;21.47;58.91
5679;BME280;2862;52.560;13.566;2022-08-01T21:09:06;100883.88;;;21.38;59.23
5679;BME280;2862;52.560;13.566;2022-08-01T21:19:12;100893.22;;;21.51;58.87
5679;BME280;2862;52.560;13.566;2022-08-01T21:29:23;100898.84;;;21.49;60.05
5679;BME280;2862;52.560;13.566;2022-08-01T21:39:27;100903.75;;;21.39;60.27
5679;BME280;2862;52.560;13.566;2022-08-01T21:49:31;100914.78;;;21.16;61.43
5679;BME280;2862;52.560;13.566;2022-08-01T21:59:42;100924.47;;;21.04;62.36
5679;BME280;2862;52.560;13.566;2022-08-01T22:09:55;100923.34;;;20.98;62.32
5679;BME280;2862;52.560;13.566;2022-08-01T22:19:59;100936.47;;;21.09;61.76
5679;BME280;2862;52.560;13.566;2022-08-01T22:30:05;100933.31;;;21.06;62.41
5679;BME280;2862;52.560;13.566;2022-08-01T22:40:11;100938.13;;;20.89;62.56
5679;BME280;2862;52.560;13.566;2022-08-01T22:50:22;100941.50;;;20.76;63.25
5679;BME280;2862;52.560;13.566;2022-08-01T23:00:27;100952.84;;;20.65;63.63
5679;BME280;2862;52.560;13.566;2022-08-01T23:10:34;100956.38;;;20.36;65.03
5679;BME280;2862;52.560;13.566;2022-08-01T23:20:38;100947.56;;;20.34;64.63
5679;BME280;2862;52.560;13.566;2022-08-01T23:30:42;100952.88;;;20.27;65.36
5679;BME280;2862;52.560;13.566;2022-08-01T23:40:46;100945.97;;;20.25;64.98
5679;BME280;2862;52.560;13.566;2022-08-01T23:50:52;100941.88;;;20.06;65.37
